Terminal Aerodrome Forecast
Issued by NWS Lubbock, TX

Home | Current Version | Previous Version | Text Only | Print | Product List | Glossary On
Versions: 1 2 3 4 5 6 7 8 9 10 11 12 13 14 15 16 17 18 19 20 21 22 23 24 25 26 27 28 29 30
000
FTUS44 KLUB 020624 AAA
TAFLBB
TAF AMD
KLBB 020624Z 0206/0306 07006KT 5SM BR OVC005
     FM020900 07006KT 1/2SM FG OVC002
     FM021500 11005KT 3SM BR OVC007
     FM022100 17008KT P6SM OVC020=

USA.gov is the U.S. government's official web portal to all federal, state and local government web resources and services.